sensor_id;sensor_type;location;lat;lon;timestamp;pressure;altitude;pressure_sealevel;temperature;humidity
50093;BME280;35974;47.752;10.290;2023-03-19T00:01:08;93520.44;;;5.73;100.00
50093;BME280;35974;47.752;10.290;2023-03-19T00:03:35;93525.03;;;5.93;100.00
50093;BME280;35974;47.752;10.290;2023-03-19T00:06:01;93552.63;;;5.94;100.00
50093;BME280;35974;47.752;10.290;2023-03-19T00:08:28;93536.53;;;5.98;100.00
50093;BME280;35974;47.752;10.290;2023-03-19T00:10:54;93528.66;;;5.92;100.00
50093;BME280;35974;47.752;10.290;2023-03-19T00:13:21;93526.16;;;5.83;100.00
50093;BME280;35974;47.752;10.290;2023-03-19T00:15:47;93522.91;;;5.81;100.00
50093;BME280;35974;47.752;10.290;2023-03-19T00:18:14;93544.38;;;6.05;100.00
50093;BME280;35974;47.752;10.290;2023-03-19T00:20:42;93526.31;;;5.97;100.00
50093;BME280;35974;47.752;10.290;2023-03-19T00:23:08;93529.88;;;5.96;100.00
50093;BME280;35974;47.752;10.290;2023-03-19T00:26:11;93550.81;;;6.09;100.00
50093;BME280;35974;47.752;10.290;2023-03-19T00:28:37;93542.78;;;6.04;100.00
50093;BME280;35974;47.752;10.290;2023-03-19T00:31:12;93547.78;;;6.05;100.00
50093;BME280;35974;47.752;10.290;2023-03-19T00:33:39;93532.75;;;6.01;100.00
50093;BME280;35974;47.752;10.290;2023-03-19T00:36:06;93550.81;;;6.09;100.00
50093;BME280;35974;47.752;10.290;2023-03-19T00:38:33;93529.88;;;5.96;100.00
50093;BME280;35974;47.752;10.290;2023-03-19T00:41:11;93554.41;;;6.08;100.00
50093;BME280;35974;47.752;10.290;2023-03-19T00:43:38;93556.00;;;6.09;100.00
50093;BME280;35974;47.752;10.290;2023-03-19T00:46:05;93556.09;;;6.16;100.00
50093;BME280;35974;47.752;10.290;2023-03-19T00:48:32;93546.50;;;6.16;100.00
50093;BME280;35974;47.752;10.290;2023-03-19T00:51:07;93554.25;;;6.31;100.00
50093;BME280;35974;47.752;10.290;2023-03-19T00:53:38;93513.59;;;6.02;100.00
50093;BME280;35974;47.752;10.290;2023-03-19T00:56:05;93529.53;;;5.99;100.00
50093;BME280;35974;47.752;10.290;2023-03-19T00:58:33;93518.06;;;6.08;100.00
50093;BME280;35974;47.752;10.290;2023-03-19T01:01:13;93558.88;;;6.14;100.00
50093;BME280;35974;47.752;10.290;2023-03-19T01:03:39;93544.03;;;6.08;100.00
50093;BME280;35974;47.752;10.290;2023-03-19T01:06:06;93547.09;;;5.97;100.00
50093;BME280;35974;47.752;10.290;2023-03-19T01:08:32;93536.00;;;6.03;100.00
50093;BME280;35974;47.752;10.290;2023-03-19T01:11:25;93562.47;;;6.13;100.00
50093;BME280;35974;47.752;10.290;2023-03-19T01:13:52;93534.88;;;6.12;100.00
50093;BME280;35974;47.752;10.290;2023-03-19T01:16:18;93540.06;;;6.12;100.00
50093;BME280;35974;47.752;10.290;2023-03-19T01:18:45;93546.38;;;6.03;100.00
50093;BME280;35974;47.752;10.290;2023-03-19T01:21:11;93560.47;;;6.15;100.00
50093;BME280;35974;47.752;10.290;2023-03-19T01:23:38;93539.19;;;6.05;100.00
50093;BME280;35974;47.752;10.290;2023-03-19T01:26:05;93547.97;;;6.04;100.00
50093;BME280;35974;47.752;10.290;2023-03-19T01:28:31;93545.63;;;6.09;100.00
50093;BME280;35974;47.752;10.290;2023-03-19T01:30:59;93573.34;;;6.23;100.00
50093;BME280;35974;47.752;10.290;2023-03-19T01:33:27;93545.81;;;5.93;100.00
50093;BME280;35974;47.752;10.290;2023-03-19T01:35:53;93581.69;;;6.19;100.00
50093;BME280;35974;47.752;10.290;2023-03-19T01:38:20;93556.75;;;6.03;100.00
50093;BME280;35974;47.752;10.290;2023-03-19T01:40:47;93587.09;;;6.39;100.00
50093;BME280;35974;47.752;10.290;2023-03-19T01:43:22;93569.16;;;6.22;100.00
50093;BME280;35974;47.752;10.290;2023-03-19T01:45:50;93578.78;;;6.07;100.00
50093;BME280;35974;47.752;10.290;2023-03-19T01:51:02;93551.94;;;6.00;100.00
50093;BME280;35974;47.752;10.290;2023-03-19T01:53:33;93577.19;;;6.06;100.00
50093;BME280;35974;47.752;10.290;2023-03-19T01:56:08;93577.91;;;6.00;100.00
50093;BME280;35974;47.752;10.290;2023-03-19T01:58:38;93547.91;;;5.82;100.00
50093;BME280;35974;47.752;10.290;2023-03-19T02:01:05;93560.34;;;5.87;100.00
50093;BME280;35974;47.752;10.290;2023-03-19T02:03:32;93572.91;;;5.83;100.00
50093;BME280;35974;47.752;10.290;2023-03-19T02:05:59;93564.56;;;5.73;100.00
50093;BME280;35974;47.752;10.290;2023-03-19T02:08:27;93555.56;;;5.69;100.00
50093;BME280;35974;47.752;10.290;2023-03-19T02:10:54;93556.69;;;5.81;100.00
50093;BME280;35974;47.752;10.290;2023-03-19T02:13:22;93572.53;;;5.86;100.00
50093;BME280;35974;47.752;10.290;2023-03-19T02:15:49;93561.16;;;5.87;100.00
50093;BME280;35974;47.752;10.290;2023-03-19T02:18:16;93560.47;;;5.79;100.00
50093;BME280;35974;47.752;10.290;2023-03-19T02:20:50;93579.13;;;5.89;100.00
50093;BME280;35974;47.752;10.290;2023-03-19T02:23:33;93583.78;;;5.94;100.00
50093;BME280;35974;47.752;10.290;2023-03-19T02:26:12;93590.97;;;5.62;100.00
50093;BME280;35974;47.752;10.290;2023-03-19T02:28:46;93587.56;;;5.76;100.00
50093;BME280;35974;47.752;10.290;2023-03-19T02:31:14;93591.59;;;5.94;100.00
50093;BME280;35974;47.752;10.290;2023-03-19T02:33:41;93595.75;;;6.25;100.00
50093;BME280;35974;47.752;10.290;2023-03-19T02:36:15;93568.97;;;6.67;100.00
50093;BME280;35974;47.752;10.290;2023-03-19T02:38:43;93587.38;;;7.22;89.78
50093;BME280;35974;47.752;10.290;2023-03-19T02:41:11;93578.38;;;7.53;78.97
50093;BME280;35974;47.752;10.290;2023-03-19T02:43:39;93593.00;;;8.02;77.11
50093;BME280;35974;47.752;10.290;2023-03-19T02:46:09;93575.78;;;8.01;74.81
50093;BME280;35974;47.752;10.290;2023-03-19T02:48:37;93605.13;;;8.30;71.81
50093;BME280;35974;47.752;10.290;2023-03-19T02:51:04;93584.69;;;8.27;69.15
50093;BME280;35974;47.752;10.290;2023-03-19T02:53:31;93594.41;;;8.47;68.05
50093;BME280;35974;47.752;10.290;2023-03-19T02:55:59;93603.03;;;8.60;67.16
50093;BME280;35974;47.752;10.290;2023-03-19T02:58:26;93607.88;;;8.64;65.55
50093;BME280;35974;47.752;10.290;2023-03-19T03:00:53;93598.03;;;8.66;65.49
50093;BME280;35974;47.752;10.290;2023-03-19T03:03:19;93598.03;;;8.72;64.37
50093;BME280;35974;47.752;10.290;2023-03-19T03:05:46;93600.25;;;8.75;64.83
50093;BME280;35974;47.752;10.290;2023-03-19T03:08:12;93615.50;;;8.85;64.08
50093;BME280;35974;47.752;10.290;2023-03-19T03:10:39;93611.13;;;8.92;63.83
50093;BME280;35974;47.752;10.290;2023-03-19T03:13:05;93622.94;;;9.02;63.42
50093;BME280;35974;47.752;10.290;2023-03-19T03:15:39;93618.13;;;8.92;63.55
50093;BME280;35974;47.752;10.290;2023-03-19T03:18:06;93619.72;;;8.79;63.69
50093;BME280;35974;47.752;10.290;2023-03-19T03:20:32;93619.72;;;8.86;63.16
50093;BME280;35974;47.752;10.290;2023-03-19T03:22:59;93621.75;;;8.77;62.90
50093;BME280;35974;47.752;10.290;2023-03-19T03:25:26;93622.94;;;8.82;63.01
50093;BME280;35974;47.752;10.290;2023-03-19T03:27:52;93625.75;;;8.87;63.12
50093;BME280;35974;47.752;10.290;2023-03-19T03:30:18;93640.63;;;9.00;63.37
50093;BME280;35974;47.752;10.290;2023-03-19T03:32:45;93628.94;;;8.75;62.86
50093;BME280;35974;47.752;10.290;2023-03-19T03:35:12;93633.38;;;8.95;62.43
50093;BME280;35974;47.752;10.290;2023-03-19T03:37:38;93653.28;;;9.03;62.37
50093;BME280;35974;47.752;10.290;2023-03-19T03:40:05;93631.97;;;8.79;62.52
50093;BME280;35974;47.752;10.290;2023-03-19T03:42:34;93649.81;;;8.75;62.29
50093;BME280;35974;47.752;10.290;2023-03-19T03:45:02;93661.47;;;8.79;62.70
50093;BME280;35974;47.752;10.290;2023-03-19T03:47:28;93647.44;;;8.81;62.75
50093;BME280;35974;47.752;10.290;2023-03-19T03:49:55;93659.47;;;8.95;62.18
50093;BME280;35974;47.752;10.290;2023-03-19T03:52:21;93663.31;;;8.86;62.38
50093;BME280;35974;47.752;10.290;2023-03-19T03:54:49;93660.06;;;8.84;62.30
50093;BME280;35974;47.752;10.290;2023-03-19T03:57:15;93654.63;;;8.78;62.05
50093;BME280;35974;47.752;10.290;2023-03-19T03:59:42;93668.72;;;8.91;61.99
50093;BME280;35974;47.752;10.290;2023-03-19T04:02:08;93659.84;;;8.78;62.19
50093;BME280;35974;47.752;10.290;2023-03-19T04:04:35;93664.31;;;8.98;61.79
50093;BME280;35974;47.752;10.290;2023-03-19T04:07:01;93654.66;;;8.85;62.55
50093;BME280;35974;47.752;10.290;2023-03-19T04:09:37;93679.16;;;8.91;62.13
50093;BME280;35974;47.752;10.290;2023-03-19T04:12:04;93663.09;;;8.81;61.60
50093;BME280;35974;47.752;10.290;2023-03-19T04:14:30;93665.09;;;8.85;60.93
50093;BME280;35974;47.752;10.290;2023-03-19T04:16:57;93662.72;;;9.10;61.39
50093;BME280;35974;47.752;10.290;2023-03-19T04:19:23;93670.75;;;9.15;61.07
50093;BME280;35974;47.752;10.290;2023-03-19T04:21:49;93682.00;;;9.23;60.99
50093;BME280;35974;47.752;10.290;2023-03-19T04:24:16;93670.34;;;8.98;61.35
50093;BME280;35974;47.752;10.290;2023-03-19T04:26:43;93674.53;;;8.93;61.56
50093;BME280;35974;47.752;10.290;2023-03-19T04:29:09;93680.78;;;9.05;61.12
50093;BME280;35974;47.752;10.290;2023-03-19T04:31:35;93654.66;;;8.92;60.88
50093;BME280;35974;47.752;10.290;2023-03-19T04:34:03;93670.34;;;9.05;60.19
50093;BME280;35974;47.752;10.290;2023-03-19T04:36:29;93666.31;;;8.83;61.35
50093;BME280;35974;47.752;10.290;2023-03-19T04:38:56;93696.47;;;9.19;60.41
50093;BME280;35974;47.752;10.290;2023-03-19T04:41:22;93674.34;;;9.01;61.16
50093;BME280;35974;47.752;10.290;2023-03-19T04:43:49;93655.47;;;8.86;60.98
50093;BME280;35974;47.752;10.290;2023-03-19T04:46:17;93675.19;;;9.08;60.18
50093;BME280;35974;47.752;10.290;2023-03-19T04:48:44;93671.53;;;8.89;60.39
50093;BME280;35974;47.752;10.290;2023-03-19T04:51:10;93699.66;;;9.07;59.91
50093;BME280;35974;47.752;10.290;2023-03-19T04:53:37;93696.00;;;8.88;60.46
50093;BME280;35974;47.752;10.290;2023-03-19T04:56:05;93700.03;;;8.91;61.13
50093;BME280;35974;47.752;10.290;2023-03-19T04:58:33;93686.72;;;8.72;61.49
50093;BME280;35974;47.752;10.290;2023-03-19T05:01:05;93708.81;;;8.76;61.88
50093;BME280;35974;47.752;10.290;2023-03-19T05:03:32;93694.72;;;8.64;62.74
50093;BME280;35974;47.752;10.290;2023-03-19T05:05:59;93697.91;;;8.53;62.73
50093;BME280;35974;47.752;10.290;2023-03-19T05:08:25;93722.00;;;8.55;62.97
50093;BME280;35974;47.752;10.290;2023-03-19T05:10:52;93708.31;;;8.53;62.61
50093;BME280;35974;47.752;10.290;2023-03-19T05:13:18;93722.16;;;8.47;62.62
50093;BME280;35974;47.752;10.290;2023-03-19T05:15:46;93721.09;;;8.41;63.31
50093;BME280;35974;47.752;10.290;2023-03-19T05:18:14;93731.13;;;8.37;63.82
50093;BME280;35974;47.752;10.290;2023-03-19T05:20:40;93726.66;;;8.31;64.19
50093;BME280;35974;47.752;10.290;2023-03-19T05:23:07;93723.47;;;8.29;64.41
50093;BME280;35974;47.752;10.290;2023-03-19T05:25:34;93723.41;;;8.16;65.61
50093;BME280;35974;47.752;10.290;2023-03-19T05:28:01;93746.03;;;8.43;64.59
50093;BME280;35974;47.752;10.290;2023-03-19T05:30:28;93762.59;;;8.36;64.99
50093;BME280;35974;47.752;10.290;2023-03-19T05:32:58;93735.63;;;8.22;64.36
50093;BME280;35974;47.752;10.290;2023-03-19T05:35:26;93741.88;;;8.21;64.99
50093;BME280;35974;47.752;10.290;2023-03-19T05:37:52;93738.25;;;8.22;65.24
50093;BME280;35974;47.752;10.290;2023-03-19T05:40:19;93746.59;;;8.11;65.80
50093;BME280;35974;47.752;10.290;2023-03-19T05:42:46;93734.97;;;8.06;65.51
50093;BME280;35974;47.752;10.290;2023-03-19T05:45:13;93755.69;;;8.50;65.11
50093;BME280;35974;47.752;10.290;2023-03-19T05:47:39;93724.59;;;8.20;65.54
50093;BME280;35974;47.752;10.290;2023-03-19T05:50:07;93738.25;;;8.22;65.72
50093;BME280;35974;47.752;10.290;2023-03-19T05:52:33;93753.88;;;8.22;66.45
50093;BME280;35974;47.752;10.290;2023-03-19T05:55:00;93759.44;;;8.12;67.73
50093;BME280;35974;47.752;10.290;2023-03-19T05:57:27;93743.38;;;8.09;66.97
50093;BME280;35974;47.752;10.290;2023-03-19T05:59:54;93739.38;;;8.06;66.35
50093;BME280;35974;47.752;10.290;2023-03-19T06:02:20;93745.47;;;8.55;66.29
50093;BME280;35974;47.752;10.290;2023-03-19T06:04:47;93753.19;;;8.41;68.33
50093;BME280;35974;47.752;10.290;2023-03-19T06:07:13;93758.72;;;8.25;67.59
50093;BME280;35974;47.752;10.290;2023-03-19T06:09:40;93765.53;;;8.26;66.95
50093;BME280;35974;47.752;10.290;2023-03-19T06:12:07;93778.53;;;8.48;66.82
50093;BME280;35974;47.752;10.290;2023-03-19T06:14:33;93773.34;;;8.54;66.17
50093;BME280;35974;47.752;10.290;2023-03-19T06:17:00;93766.56;;;8.60;66.78
50093;BME280;35974;47.752;10.290;2023-03-19T06:19:26;93767.63;;;8.37;67.93
50093;BME280;35974;47.752;10.290;2023-03-19T06:21:52;93796.91;;;8.39;68.77
50093;BME280;35974;47.752;10.290;2023-03-19T06:24:19;93782.47;;;8.37;68.40
50093;BME280;35974;47.752;10.290;2023-03-19T06:26:45;93804.53;;;8.41;68.87
50093;BME280;35974;47.752;10.290;2023-03-19T06:29:12;93779.19;;;8.28;68.07
50093;BME280;35974;47.752;10.290;2023-03-19T06:31:45;93780.03;;;8.35;68.50
50093;BME280;35974;47.752;10.290;2023-03-19T06:34:12;93804.19;;;8.44;70.14
50093;BME280;35974;47.752;10.290;2023-03-19T06:36:47;93796.53;;;8.42;70.19
50093;BME280;35974;47.752;10.290;2023-03-19T06:39:14;93798.00;;;8.52;70.79
50093;BME280;35974;47.752;10.290;2023-03-19T06:41:40;93820.72;;;8.58;71.96
50093;BME280;35974;47.752;10.290;2023-03-19T06:47:22;93793.31;;;8.40;71.70
50093;BME280;35974;47.752;10.290;2023-03-19T06:49:49;93811.50;;;8.62;71.49
50093;BME280;35974;47.752;10.290;2023-03-19T06:52:16;93807.56;;;8.79;70.67
50093;BME280;35974;47.752;10.290;2023-03-19T06:54:42;93819.28;;;8.97;65.86
50093;BME280;35974;47.752;10.290;2023-03-19T06:57:09;93810.06;;;9.08;64.63
50093;BME280;35974;47.752;10.290;2023-03-19T06:59:35;93804.84;;;9.01;65.12
50093;BME280;35974;47.752;10.290;2023-03-19T07:02:02;93833.84;;;9.20;65.32
50093;BME280;35974;47.752;10.290;2023-03-19T07:04:29;93797.66;;;9.10;64.74
50093;BME280;35974;47.752;10.290;2023-03-19T07:06:55;93812.97;;;9.33;63.57
50093;BME280;35974;47.752;10.290;2023-03-19T07:09:22;93816.56;;;9.32;60.84
50093;BME280;35974;47.752;10.290;2023-03-19T07:11:48;93813.75;;;9.27;61.38
50093;BME280;35974;47.752;10.290;2023-03-19T07:14:15;93830.69;;;9.44;61.61
50093;BME280;35974;47.752;10.290;2023-03-19T07:16:41;93813.75;;;9.27;60.35
50093;BME280;35974;47.752;10.290;2023-03-19T07:19:15;93833.94;;;9.73;60.25
50093;BME280;35974;47.752;10.290;2023-03-19T07:21:55;93834.69;;;9.53;60.33
50093;BME280;35974;47.752;10.290;2023-03-19T07:24:21;93825.47;;;9.58;59.57
50093;BME280;35974;47.752;10.290;2023-03-19T07:26:55;93827.03;;;9.32;60.01
50093;BME280;35974;47.752;10.290;2023-03-19T07:29:31;93820.66;;;9.55;60.30
50093;BME280;35974;47.752;10.290;2023-03-19T07:32:20;93848.81;;;9.79;60.79
50093;BME280;35974;47.752;10.290;2023-03-19T07:34:49;93806.19;;;9.59;60.04
50093;BME280;35974;47.752;10.290;2023-03-19T07:37:16;93842.78;;;9.85;60.23
50093;BME280;35974;47.752;10.290;2023-03-19T07:39:45;93834.75;;;9.67;60.73
50093;BME280;35974;47.752;10.290;2023-03-19T07:42:16;93813.81;;;9.53;59.90
50093;BME280;35974;47.752;10.290;2023-03-19T07:44:42;93833.94;;;9.73;59.84
50093;BME280;35974;47.752;10.290;2023-03-19T07:47:09;93829.13;;;9.83;60.01
50093;BME280;35974;47.752;10.290;2023-03-19T07:49:53;93836.38;;;9.95;60.05
50093;BME280;35974;47.752;10.290;2023-03-19T07:52:19;93831.94;;;9.88;58.97
50093;BME280;35974;47.752;10.290;2023-03-19T07:54:46;93835.53;;;9.74;59.70
50093;BME280;35974;47.752;10.290;2023-03-19T07:57:12;93836.38;;;9.88;60.63
50093;BME280;35974;47.752;10.290;2023-03-19T07:59:46;93856.91;;;10.11;60.29
50093;BME280;35974;47.752;10.290;2023-03-19T08:02:13;93856.09;;;10.31;60.07
50093;BME280;35974;47.752;10.290;2023-03-19T08:04:40;93839.59;;;10.10;60.61
50093;BME280;35974;47.752;10.290;2023-03-19T08:07:07;93825.91;;;10.21;59.55
50093;BME280;35974;47.752;10.290;2023-03-19T08:09:36;93840.03;;;10.34;58.89
50093;BME280;35974;47.752;10.290;2023-03-19T08:12:03;93820.69;;;10.48;57.98
50093;BME280;35974;47.752;10.290;2023-03-19T08:14:29;93826.72;;;10.42;58.65
50093;BME280;35974;47.752;10.290;2023-03-19T08:16:56;93834.38;;;10.37;58.79
50093;BME280;35974;47.752;10.290;2023-03-19T08:19:22;93828.31;;;10.56;58.34
50093;BME280;35974;47.752;10.290;2023-03-19T08:21:49;93844.03;;;10.56;58.31
50093;BME280;35974;47.752;10.290;2023-03-19T08:24:15;93849.25;;;10.56;58.20
50093;BME280;35974;47.752;10.290;2023-03-19T08:26:43;93854.03;;;10.73;58.04
50093;BME280;35974;47.752;10.290;2023-03-19T08:29:09;93840.78;;;10.27;58.70
50093;BME280;35974;47.752;10.290;2023-03-19T08:31:36;93849.66;;;10.53;59.03
50093;BME280;35974;47.752;10.290;2023-03-19T08:34:02;93845.16;;;10.87;58.11
50093;BME280;35974;47.752;10.290;2023-03-19T08:36:30;93861.63;;;10.94;58.12
50093;BME280;35974;47.752;10.290;2023-03-19T08:38:57;93677.56;;;9.77;57.56
50093;BME280;35974;47.752;10.290;2023-03-19T08:41:24;93863.28;;;10.82;57.52
50093;BME280;35974;47.752;10.290;2023-03-19T08:43:51;93849.59;;;10.80;57.65
50093;BME280;35974;47.752;10.290;2023-03-19T08:46:17;93859.25;;;10.79;58.01
50093;BME280;35974;47.752;10.290;2023-03-19T08:48:44;93855.41;;;10.95;57.88
50093;BME280;35974;47.752;10.290;2023-03-19T08:51:10;93849.78;;;10.92;57.00
50093;BME280;35974;47.752;10.290;2023-03-19T08:53:37;93847.09;;;11.12;57.55
50093;BME280;35974;47.752;10.290;2023-03-19T08:56:05;93865.66;;;11.04;56.70
50093;BME280;35974;47.752;10.290;2023-03-19T08:58:33;93852.31;;;11.12;56.68
50093;BME280;35974;47.752;10.290;2023-03-19T09:01:03;93865.78;;;11.22;57.88
50093;BME280;35974;47.752;10.290;2023-03-19T09:03:30;93861.50;;;11.34;57.27
50093;BME280;35974;47.752;10.290;2023-03-19T09:06:00;93865.84;;;11.54;56.85
50093;BME280;35974;47.752;10.290;2023-03-19T09:08:31;93864.03;;;11.93;55.17
50093;BME280;35974;47.752;10.290;2023-03-19T09:10:57;93835.72;;;11.70;55.38
50093;BME280;35974;47.752;10.290;2023-03-19T09:13:27;93870.53;;;11.77;55.30
50093;BME280;35974;47.752;10.290;2023-03-19T09:15:56;93847.50;;;11.86;55.25
50093;BME280;35974;47.752;10.290;2023-03-19T09:18:25;93841.06;;;11.82;55.04
50093;BME280;35974;47.752;10.290;2023-03-19T09:20:52;93866.88;;;12.17;53.65
50093;BME280;35974;47.752;10.290;2023-03-19T09:23:35;93857.88;;;12.31;53.44
50093;BME280;35974;47.752;10.290;2023-03-19T09:26:03;93850.06;;;12.24;54.10
50093;BME280;35974;47.752;10.290;2023-03-19T09:28:29;93860.41;;;12.44;53.63
50093;BME280;35974;47.752;10.290;2023-03-19T09:30:58;93865.13;;;12.61;52.70
50093;BME280;35974;47.752;10.290;2023-03-19T09:33:26;93843.91;;;12.81;52.27
50093;BME280;35974;47.752;10.290;2023-03-19T09:36:15;93862.22;;;13.06;52.34
50093;BME280;35974;47.752;10.290;2023-03-19T09:38:43;93837.13;;;12.73;52.57
50093;BME280;35974;47.752;10.290;2023-03-19T09:41:19;93834.28;;;12.75;51.33
50093;BME280;35974;47.752;10.290;2023-03-19T09:43:56;93859.72;;;12.74;52.80
50093;BME280;35974;47.752;10.290;2023-03-19T09:46:45;93850.00;;;12.56;52.10
50093;BME280;35974;47.752;10.290;2023-03-19T09:51:52;93851.19;;;12.35;52.33
50093;BME280;35974;47.752;10.290;2023-03-19T09:54:25;93847.31;;;12.63;52.28
50093;BME280;35974;47.752;10.290;2023-03-19T09:56:55;93831.84;;;12.73;51.67
50093;BME280;35974;47.752;10.290;2023-03-19T09:59:34;93837.78;;;12.87;52.03
50093;BME280;35974;47.752;10.290;2023-03-19T10:05:25;93848.66;;;13.28;50.92
50093;BME280;35974;47.752;10.290;2023-03-19T10:11:11;93831.59;;;13.00;51.22
50093;BME280;35974;47.752;10.290;2023-03-19T10:13:59;93837.81;;;13.54;50.25
50093;BME280;35974;47.752;10.290;2023-03-19T10:16:38;93825.34;;;13.80;49.99
50093;BME280;35974;47.752;10.290;2023-03-19T10:19:09;93822.22;;;13.41;49.79
50093;BME280;35974;47.752;10.290;2023-03-19T10:21:57;93795.31;;;13.58;49.31
50093;BME280;35974;47.752;10.290;2023-03-19T10:24:32;93821.28;;;14.08;47.84
50093;BME280;35974;47.752;10.290;2023-03-19T10:27:19;93831.34;;;14.11;48.52
50093;BME280;35974;47.752;10.290;2023-03-19T10:29:51;93824.63;;;14.27;47.45
50093;BME280;35974;47.752;10.290;2023-03-19T10:32:37;93823.84;;;14.26;48.76
50093;BME280;35974;47.752;10.290;2023-03-19T10:35:21;93825.13;;;13.94;47.02
50093;BME280;35974;47.752;10.290;2023-03-19T10:37:50;93793.00;;;13.49;47.74
50093;BME280;35974;47.752;10.290;2023-03-19T10:40:43;93807.44;;;14.13;47.88
50093;BME280;35974;47.752;10.290;2023-03-19T10:43:23;93827.97;;;14.70;46.77
50093;BME280;35974;47.752;10.290;2023-03-19T10:45:50;93821.53;;;14.42;46.50
50093;BME280;35974;47.752;10.290;2023-03-19T10:48:23;93812.44;;;13.90;48.54
50093;BME280;35974;47.752;10.290;2023-03-19T10:51:04;93788.50;;;13.80;47.33
50093;BME280;35974;47.752;10.290;2023-03-19T10:53:37;93795.41;;;14.05;48.85
50093;BME280;35974;47.752;10.290;2023-03-19T10:56:17;93813.16;;;14.21;47.58
50093;BME280;35974;47.752;10.290;2023-03-19T11:01:39;93809.78;;;13.90;49.44
50093;BME280;35974;47.752;10.290;2023-03-19T11:04:19;93807.69;;;14.23;47.37
50093;BME280;35974;47.752;10.290;2023-03-19T11:06:52;93775.97;;;14.29;47.48
50093;BME280;35974;47.752;10.290;2023-03-19T11:09:28;93806.41;;;14.49;46.50
50093;BME280;35974;47.752;10.290;2023-03-19T11:14:47;93777.59;;;14.54;46.50
50093;BME280;35974;47.752;10.290;2023-03-19T11:17:21;93797.75;;;14.60;47.74
50093;BME280;35974;47.752;10.290;2023-03-19T11:19:51;93793.81;;;14.98;47.34
50093;BME280;35974;47.752;10.290;2023-03-19T11:22:29;93794.19;;;15.19;46.18
50093;BME280;35974;47.752;10.290;2023-03-19T11:25:15;93773.41;;;15.06;45.59
50093;BME280;35974;47.752;10.290;2023-03-19T11:28:15;93780.31;;;14.83;45.79
50093;BME280;35974;47.752;10.290;2023-03-19T11:31:02;93764.88;;;14.51;46.97
50093;BME280;35974;47.752;10.290;2023-03-19T11:36:52;93785.63;;;14.59;46.65
50093;BME280;35974;47.752;10.290;2023-03-19T11:48:25;93778.56;;;15.00;45.54
50093;BME280;35974;47.752;10.290;2023-03-19T11:51:09;93749.28;;;14.85;46.17
50093;BME280;35974;47.752;10.290;2023-03-19T11:53:59;93745.97;;;14.78;45.99
50093;BME280;35974;47.752;10.290;2023-03-19T11:56:49;93747.88;;;15.06;44.96
50093;BME280;35974;47.752;10.290;2023-03-19T12:05:30;93747.50;;;14.74;44.96
50093;BME280;35974;47.752;10.290;2023-03-19T12:08:17;93714.78;;;14.98;44.75
50093;BME280;35974;47.752;10.290;2023-03-19T12:11:23;93720.22;;;14.68;45.39
50093;BME280;35974;47.752;10.290;2023-03-19T12:16:45;93742.91;;;15.10;44.84
50093;BME280;35974;47.752;10.290;2023-03-19T12:30:33;93730.38;;;15.17;44.45
50093;BME280;35974;47.752;10.290;2023-03-19T12:33:34;93718.41;;;15.55;44.18
50093;BME280;35974;47.752;10.290;2023-03-19T12:36:15;93692.34;;;15.42;43.92
50093;BME280;35974;47.752;10.290;2023-03-19T12:39:03;93720.94;;;15.50;42.83
50093;BME280;35974;47.752;10.290;2023-03-19T12:41:37;93713.63;;;15.52;43.16
50093;BME280;35974;47.752;10.290;2023-03-19T12:44:09;93720.19;;;15.66;42.98
50093;BME280;35974;47.752;10.290;2023-03-19T12:49:36;93716.38;;;16.08;42.99
50093;BME280;35974;47.752;10.290;2023-03-19T12:52:26;93710.56;;;15.43;43.03
50093;BME280;35974;47.752;10.290;2023-03-19T12:55:21;93708.94;;;15.88;44.40
50093;BME280;35974;47.752;10.290;2023-03-19T12:58:15;93710.13;;;15.63;43.14
50093;BME280;35974;47.752;10.290;2023-03-19T13:00:57;93699.88;;;15.67;43.50
50093;BME280;35974;47.752;10.290;2023-03-19T13:04:01;93699.38;;;15.53;43.26
50093;BME280;35974;47.752;10.290;2023-03-19T13:12:36;93697.31;;;14.69;45.00
50093;BME280;35974;47.752;10.290;2023-03-19T13:15:13;93682.94;;;14.88;44.51
50093;BME280;35974;47.752;10.290;2023-03-19T13:18:02;93689.28;;;15.33;42.75
50093;BME280;35974;47.752;10.290;2023-03-19T13:24:05;93689.00;;;15.46;44.32
50093;BME280;35974;47.752;10.290;2023-03-19T13:26:35;93662.53;;;15.24;42.73
50093;BME280;35974;47.752;10.290;2023-03-19T13:31:34;93670.91;;;15.21;42.67
50093;BME280;35974;47.752;10.290;2023-03-19T13:34:36;93686.78;;;15.55;42.37
50093;BME280;35974;47.752;10.290;2023-03-19T13:37:11;93665.16;;;15.24;43.30
50093;BME280;35974;47.752;10.290;2023-03-19T13:39:38;93684.66;;;15.23;42.30
50093;BME280;35974;47.752;10.290;2023-03-19T13:42:41;93685.19;;;15.25;42.42
50093;BME280;35974;47.752;10.290;2023-03-19T13:45:34;93683.72;;;15.29;43.29
50093;BME280;35974;47.752;10.290;2023-03-19T13:51:01;93685.41;;;15.07;43.66
50093;BME280;35974;47.752;10.290;2023-03-19T13:56:07;93661.69;;;14.78;44.93
50093;BME280;35974;47.752;10.290;2023-03-19T13:59:24;93682.41;;;15.15;44.46
50093;BME280;35974;47.752;10.290;2023-03-19T14:01:53;93677.28;;;15.25;43.13
50093;BME280;35974;47.752;10.290;2023-03-19T14:04:26;93659.31;;;15.22;42.07
50093;BME280;35974;47.752;10.290;2023-03-19T14:06:56;93657.81;;;15.26;42.21
50093;BME280;35974;47.752;10.290;2023-03-19T14:09:33;93642.78;;;15.10;42.68
50093;BME280;35974;47.752;10.290;2023-03-19T14:12:29;93670.25;;;15.14;42.17
50093;BME280;35974;47.752;10.290;2023-03-19T14:17:43;93658.41;;;14.99;43.37
50093;BME280;35974;47.752;10.290;2023-03-19T14:28:23;93663.94;;;14.86;43.57
50093;BME280;35974;47.752;10.290;2023-03-19T14:30:53;93656.25;;;14.68;43.61
50093;BME280;35974;47.752;10.290;2023-03-19T14:33:25;93636.16;;;14.78;43.84
50093;BME280;35974;47.752;10.290;2023-03-19T14:35:55;93636.50;;;14.82;44.55
50093;BME280;35974;47.752;10.290;2023-03-19T14:38:36;93664.34;;;15.07;46.38
50093;BME280;35974;47.752;10.290;2023-03-19T14:41:05;93648.84;;;15.10;45.90